createdAt,value
2019-01-28T00:02:33.439Z,1.25
2019-01-28T00:05:19.151Z,2.42
2019-01-28T00:08:05.223Z,0.65
2019-01-28T00:10:51.128Z,0.78
2019-01-28T00:13:36.907Z,0.60
2019-01-28T00:16:22.747Z,2.15
2019-01-28T00:19:08.768Z,0.68
2019-01-28T00:21:54.375Z,0.50
2019-01-28T00:24:40.315Z,0.72
2019-01-28T00:27:26.004Z,1.00
2019-01-28T00:30:12.039Z,0.50
2019-01-28T00:32:57.835Z,0.70
2019-01-28T00:35:43.795Z,0.72
2019-01-28T00:38:29.635Z,1.02
2019-01-28T00:41:15.667Z,0.70
2019-01-28T00:44:01.445Z,0.88
2019-01-28T00:46:47.999Z,0.80
2019-01-28T00:49:33.443Z,1.02
2019-01-28T00:52:19.471Z,0.80
2019-01-28T00:55:06.903Z,0.88
2019-01-28T00:57:53.407Z,0.53
2019-01-28T01:00:39.215Z,2.35
2019-01-28T01:03:25.135Z,0.82
2019-01-28T01:06:10.903Z,1.47
2019-01-28T01:08:56.949Z,0.80
2019-01-28T01:11:42.877Z,0.80
2019-01-28T01:14:28.447Z,0.80
2019-01-28T01:17:14.412Z,0.75
2019-01-28T01:20:00.605Z,0.70
2019-01-28T01:22:46.339Z,0.68
2019-01-28T01:25:32.278Z,1.02
2019-01-28T01:28:18.143Z,1.17
2019-01-28T01:31:04.367Z,0.50
2019-01-28T01:33:50.419Z,0.90
2019-01-28T01:36:36.915Z,0.75
2019-01-28T01:39:22.591Z,0.40
2019-01-28T01:42:08.883Z,0.42
2019-01-28T01:44:54.511Z,0.85
2019-01-28T01:47:40.471Z,0.70
2019-01-28T01:50:26.572Z,0.72
2019-01-28T01:53:12.449Z,0.82
2019-01-28T01:55:58.164Z,0.78
2019-01-28T01:58:44.204Z,1.00
2019-01-28T02:01:29.999Z,0.53
2019-01-28T02:04:15.763Z,0.93
2019-01-28T02:07:01.671Z,0.62
2019-01-28T02:09:48.232Z,0.80
2019-01-28T02:12:33.748Z,1.12
2019-01-28T02:15:20.499Z,0.68
2019-01-28T02:18:06.000Z,0.82
2019-01-28T02:20:52.279Z,0.50
2019-01-28T02:23:38.191Z,0.50
2019-01-28T02:26:23.969Z,0.80
2019-01-28T02:29:09.707Z,1.22
2019-01-28T02:31:55.939Z,0.80
2019-01-28T02:34:41.867Z,1.07
2019-01-28T02:37:27.499Z,1.12
2019-01-28T02:40:17.008Z,0.68
2019-01-28T02:43:02.649Z,0.82
2019-01-28T02:45:48.520Z,0.50
2019-01-28T02:48:34.332Z,0.70
2019-01-28T02:51:20.076Z,0.82
2019-01-28T02:54:06.188Z,0.50
2019-01-28T02:56:51.911Z,0.60
2019-01-28T02:59:38.130Z,0.78
2019-01-28T03:02:23.880Z,0.62
2019-01-28T03:05:10.049Z,0.88
2019-01-28T03:07:55.933Z,0.50
2019-01-28T03:10:42.047Z,0.78
2019-01-28T03:13:27.867Z,1.22
2019-01-28T03:16:14.147Z,0.95
2019-01-28T03:18:59.897Z,0.80
2019-01-28T03:21:45.843Z,1.30
2019-01-28T03:24:31.703Z,1.75
2019-01-28T03:27:18.262Z,0.90
2019-01-28T03:30:05.998Z,0.55
2019-01-28T03:32:51.572Z,4.00
2019-01-28T03:35:37.404Z,0.75
2019-01-28T03:38:23.617Z,1.00
2019-01-28T03:41:09.104Z,0.57
2019-01-28T03:43:55.755Z,0.60
2019-01-28T03:46:41.739Z,0.60
2019-01-28T03:49:27.795Z,0.62
2019-01-28T03:52:16.292Z,0.53
2019-01-28T03:55:02.483Z,0.75
2019-01-28T03:57:48.343Z,3.27
2019-01-28T04:00:34.118Z,0.60
2019-01-28T04:03:20.020Z,0.70
2019-01-28T04:06:06.261Z,0.70
2019-01-28T04:08:52.108Z,1.20
2019-01-28T04:11:38.043Z,0.85
2019-01-28T04:14:23.851Z,0.88
2019-01-28T04:17:10.003Z,0.93
2019-01-28T04:19:55.744Z,0.80
2019-01-28T04:22:41.909Z,0.68
2019-01-28T04:25:27.627Z,0.70
2019-01-28T04:28:13.495Z,0.55
2019-01-28T04:30:59.399Z,0.65
2019-01-28T04:33:45.470Z,0.75
2019-01-28T04:36:31.379Z,0.80
2019-01-28T04:39:17.870Z,0.70
2019-01-28T04:42:04.117Z,2.67
2019-01-28T04:44:50.264Z,2.98
2019-01-28T04:47:36.103Z,2.75
2019-01-28T04:50:22.028Z,1.17
2019-01-28T04:53:07.987Z,1.90
2019-01-28T04:55:54.042Z,3.30
2019-01-28T04:58:39.861Z,3.62
2019-01-28T05:01:25.976Z,1.00
2019-01-28T05:04:11.527Z,1.05
2019-01-28T05:06:57.103Z,0.93
2019-01-28T05:09:43.126Z,3.50
2019-01-28T05:12:28.864Z,0.88
2019-01-28T05:15:15.784Z,0.65
2019-01-28T05:18:01.575Z,3.77
2019-01-28T05:20:47.253Z,1.37
2019-01-28T05:23:33.347Z,0.80
2019-01-28T05:26:19.119Z,1.52
2019-01-28T05:29:05.041Z,1.30
2019-01-28T05:31:51.031Z,0.80
2019-01-28T05:34:36.628Z,0.72
2019-01-28T05:37:22.772Z,1.80
2019-01-28T05:40:10.615Z,1.50
2019-01-28T05:42:56.169Z,0.78
2019-01-28T05:45:42.367Z,0.88
2019-01-28T05:48:27.924Z,0.85
2019-01-28T05:51:14.109Z,1.42
2019-01-28T05:54:00.095Z,1.00
2019-01-28T05:56:47.402Z,1.20
2019-01-28T05:59:33.127Z,0.65
2019-01-28T06:02:19.528Z,0.65
2019-01-28T06:05:06.223Z,1.45
2019-01-28T06:07:52.089Z,2.50
2019-01-28T06:10:37.807Z,1.35
2019-01-28T06:13:23.686Z,3.72
2019-01-28T06:16:09.755Z,1.35
2019-01-28T06:18:55.423Z,4.47
2019-01-28T06:21:41.229Z,2.50
2019-01-28T06:24:27.239Z,1.00
2019-01-28T06:27:13.047Z,1.52
2019-01-28T06:29:58.963Z,1.10
2019-01-28T06:32:44.749Z,2.77
2019-01-28T06:35:30.551Z,0.82
2019-01-28T06:38:16.471Z,1.37
2019-01-28T06:41:02.590Z,2.45
2019-01-28T06:43:48.450Z,2.30
2019-01-28T06:46:34.224Z,3.47
2019-01-28T06:49:20.075Z,4.62
2019-01-28T06:52:06.262Z,3.12
2019-01-28T06:54:51.903Z,3.33
2019-01-28T06:57:37.623Z,3.10
2019-01-28T07:00:26.187Z,3.98
2019-01-28T07:03:54.903Z,5.90
2019-01-28T07:07:10.832Z,4.92
2019-01-28T07:14:17.387Z,4.72
2019-01-28T07:16:59.390Z,2.55
2019-01-28T07:20:30.775Z,2.65
2019-01-28T07:23:12.222Z,2.25
2019-01-28T07:25:49.888Z,2.33
2019-01-28T07:28:24.167Z,2.58
2019-01-28T07:30:54.039Z,2.55
2019-01-28T07:33:21.168Z,4.37
2019-01-28T07:35:48.449Z,2.37
2019-01-28T07:38:15.847Z,1.45
2019-01-28T07:40:43.163Z,4.90
2019-01-28T07:43:10.207Z,3.22
2019-01-28T07:45:44.565Z,4.35
2019-01-28T07:48:06.123Z,4.22
2019-01-28T07:50:33.191Z,2.50
2019-01-28T07:53:00.338Z,1.77
2019-01-28T07:55:45.935Z,2.12
2019-01-28T07:58:31.756Z,2.47
2019-01-28T08:00:59.306Z,1.60
2019-01-28T08:03:26.375Z,1.45
2019-01-28T08:05:53.432Z,4.33
2019-01-28T08:08:20.583Z,2.92
2019-01-28T08:10:47.922Z,3.27
2019-01-28T08:13:15.351Z,1.75
2019-01-28T08:15:42.448Z,4.45
2019-01-28T08:18:10.809Z,2.20
2019-01-28T08:20:38.583Z,1.80
2019-01-28T08:23:05.847Z,3.72
2019-01-28T08:25:33.063Z,5.37
2019-01-28T08:28:00.479Z,2.33
2019-01-28T08:30:29.943Z,1.40
2019-01-28T08:32:57.137Z,3.37
2019-01-28T08:35:24.843Z,1.15
2019-01-28T08:37:51.891Z,3.60
2019-01-28T08:40:19.543Z,4.33
2019-01-28T08:42:46.583Z,2.52
2019-01-28T08:45:13.651Z,3.10
2019-01-28T08:47:41.059Z,2.90
2019-01-28T08:50:10.203Z,3.40
2019-01-28T08:52:37.263Z,2.65
2019-01-28T08:55:06.062Z,2.17
2019-01-28T08:57:33.219Z,2.95
2019-01-28T09:00:00.439Z,2.70
2019-01-28T09:02:27.483Z,4.45
2019-01-28T09:04:54.555Z,3.10
2019-01-28T09:07:21.635Z,3.62
2019-01-28T09:09:48.695Z,3.08
2019-01-28T09:12:16.804Z,2.83
2019-01-28T09:16:06.412Z,2.83
2019-01-28T09:18:33.669Z,4.08
2019-01-28T09:21:00.954Z,1.57
2019-01-28T09:23:28.296Z,2.02
2019-01-28T09:25:55.475Z,2.50
2019-01-28T09:28:22.663Z,3.08
2019-01-28T09:30:49.991Z,5.55
2019-01-28T09:33:17.391Z,4.08
2019-01-28T09:35:45.049Z,2.62
2019-01-28T09:38:12.762Z,2.02
2019-01-28T09:40:39.951Z,3.77
2019-01-28T09:43:07.061Z,2.95
2019-01-28T09:45:37.031Z,2.45
2019-01-28T09:48:05.140Z,3.45
2019-01-28T09:50:32.475Z,4.97
2019-01-28T09:53:00.011Z,3.05
2019-01-28T09:55:27.593Z,4.33
2019-01-28T09:57:54.879Z,2.80
2019-01-28T10:00:26.493Z,7.78
2019-01-28T10:03:12.497Z,4.45
2019-01-28T10:05:58.491Z,2.05
2019-01-28T10:08:44.253Z,3.17
2019-01-28T10:11:12.125Z,3.15
2019-01-28T10:13:39.207Z,2.58
2019-01-28T10:16:06.395Z,2.90
2019-01-28T10:18:41.500Z,2.80
2019-01-28T10:21:03.379Z,1.87
2019-01-28T10:23:30.607Z,2.83
2019-01-28T10:25:57.959Z,5.22
2019-01-28T10:28:25.219Z,2.72
2019-01-28T10:30:52.499Z,4.30
2019-01-28T10:33:19.854Z,1.90
2019-01-28T10:35:47.151Z,2.98
2019-01-28T10:38:14.598Z,2.58
2019-01-28T10:40:43.211Z,3.62
2019-01-28T10:43:10.346Z,4.10
2019-01-28T10:45:37.635Z,5.30
2019-01-28T10:48:06.591Z,1.72
2019-01-28T10:50:34.539Z,2.75
2019-01-28T10:53:02.071Z,3.30
2019-01-28T10:55:29.376Z,3.17
2019-01-28T10:57:57.043Z,3.72
2019-01-28T11:00:27.047Z,5.70
2019-01-28T11:02:54.355Z,2.85
2019-01-28T11:05:22.167Z,2.17
2019-01-28T11:07:49.311Z,2.50
2019-01-28T11:10:17.952Z,2.58
2019-01-28T11:13:05.229Z,2.98
2019-01-28T11:15:51.207Z,3.58
2019-01-28T11:18:37.102Z,2.77
2019-01-28T11:21:22.965Z,3.77
2019-01-28T11:24:09.453Z,2.70
2019-01-28T11:26:55.883Z,3.65
2019-01-28T11:29:41.763Z,1.98
2019-01-28T11:32:28.182Z,2.27
2019-01-28T11:35:14.105Z,1.82
2019-01-28T11:38:01.600Z,4.25
2019-01-28T11:40:48.216Z,2.58
2019-01-28T11:43:34.536Z,3.90
2019-01-28T11:46:20.533Z,3.30
2019-01-28T11:49:06.684Z,2.33
2019-01-28T11:51:52.995Z,2.17
2019-01-28T11:54:38.774Z,2.08
2019-01-28T11:57:24.779Z,2.17
2019-01-28T12:00:34.400Z,2.75
2019-01-28T12:03:20.011Z,1.95
2019-01-28T12:06:05.795Z,4.62
2019-01-28T12:08:51.917Z,3.72
2019-01-28T12:11:37.635Z,1.82
2019-01-28T12:14:23.777Z,2.47
2019-01-28T12:17:10.007Z,4.08
2019-01-28T12:19:55.910Z,2.33
2019-01-28T12:22:41.705Z,3.12
2019-01-28T12:25:27.758Z,2.62
2019-01-28T12:28:13.835Z,1.55
2019-01-28T12:31:00.011Z,2.85
2019-01-28T12:33:45.915Z,2.50
2019-01-28T12:36:32.132Z,1.75
2019-01-28T12:39:18.283Z,2.60
2019-01-28T12:42:05.778Z,2.45
2019-01-28T12:44:51.875Z,1.32
2019-01-28T12:47:38.157Z,2.60
2019-01-28T12:50:23.955Z,3.25
2019-01-28T12:53:09.914Z,9.00
2019-01-28T12:55:37.434Z,5.42
2019-01-28T12:58:06.983Z,3.45
2019-01-28T13:00:42.792Z,5.08
2019-01-28T13:03:11.031Z,4.72
2019-01-28T13:05:38.811Z,3.50
2019-01-28T13:08:06.382Z,1.50
2019-01-28T13:10:33.586Z,5.55
2019-01-28T13:13:00.783Z,8.28
2019-01-28T13:15:28.115Z,14.98
2019-01-28T13:17:56.199Z,6.37
2019-01-28T13:20:23.629Z,5.20
2019-01-28T13:22:50.967Z,5.20
2019-01-28T13:25:19.188Z,4.20
2019-01-28T13:27:46.966Z,4.22
2019-01-28T13:30:17.526Z,3.00
2019-01-28T13:32:44.720Z,4.67
2019-01-28T13:35:11.903Z,4.90
2019-01-28T13:37:39.135Z,3.25
2019-01-28T13:40:06.908Z,2.10
2019-01-28T13:42:34.208Z,2.62
2019-01-28T13:45:01.686Z,7.97
2019-01-28T13:47:30.474Z,2.30
2019-01-28T13:49:58.374Z,5.60
2019-01-28T13:52:25.564Z,5.60
2019-01-28T13:54:52.948Z,1.80
2019-01-28T13:57:20.167Z,3.20
2019-01-28T13:59:47.507Z,3.02
2019-01-28T14:02:14.850Z,2.95
2019-01-28T14:04:42.127Z,2.52
2019-01-28T14:07:09.499Z,2.58
2019-01-28T14:09:36.710Z,2.83
2019-01-28T14:12:03.887Z,1.80
2019-01-28T14:14:31.219Z,3.10
2019-01-28T14:16:58.707Z,2.30
2019-01-28T14:19:25.890Z,1.87
2019-01-28T14:21:53.094Z,3.35
2019-01-28T14:24:20.184Z,2.75
2019-01-28T14:27:06.259Z,12.95
2019-01-28T14:29:52.045Z,7.60
2019-01-28T14:32:38.312Z,6.55
2019-01-28T14:35:24.072Z,10.18
2019-01-28T14:38:11.322Z,9.05
2019-01-28T14:40:57.444Z,11.08
2019-01-28T14:43:25.283Z,6.87
2019-01-28T14:45:52.728Z,7.92
2019-01-28T14:48:20.563Z,5.58
2019-01-28T14:50:47.695Z,4.75
2019-01-28T14:53:15.007Z,5.53
2019-01-28T14:55:42.365Z,4.12
2019-01-28T14:58:16.323Z,4.25
2019-01-28T15:00:44.282Z,6.50
2019-01-28T15:03:13.205Z,7.40
2019-01-28T15:05:40.496Z,7.90
2019-01-28T15:08:07.855Z,4.97
2019-01-28T15:10:35.262Z,4.58
2019-01-28T15:13:03.319Z,5.22
2019-01-28T15:15:32.511Z,3.67
2019-01-28T15:17:59.803Z,4.12
2019-01-28T15:20:27.051Z,3.98
2019-01-28T15:22:54.243Z,3.65
2019-01-28T15:25:21.715Z,2.98
2019-01-28T15:27:49.042Z,7.15
2019-01-28T15:30:18.687Z,4.53
2019-01-28T15:32:46.503Z,7.65
2019-01-28T15:35:13.974Z,5.72
2019-01-28T15:37:41.272Z,7.03
2019-01-28T15:40:10.790Z,3.15
2019-01-28T15:42:38.189Z,4.72
2019-01-28T15:45:11.420Z,3.33
2019-01-28T15:47:38.244Z,3.65
2019-01-28T15:50:10.751Z,4.67
2019-01-28T15:52:35.551Z,4.17
2019-01-28T15:55:03.827Z,4.87
2019-01-28T15:57:31.461Z,3.30
2019-01-28T15:59:58.855Z,2.85
2019-01-28T16:02:26.038Z,4.70
2019-01-28T16:04:53.272Z,4.20
2019-01-28T16:07:20.911Z,5.10
2019-01-28T16:09:48.452Z,3.42
2019-01-28T16:12:15.854Z,3.87
2019-01-28T16:14:43.147Z,4.97
2019-01-28T16:17:10.651Z,3.27
2019-01-28T16:19:38.271Z,4.70
2019-01-28T16:22:06.353Z,1.82
2019-01-28T16:24:34.087Z,3.33
2019-01-28T16:27:01.603Z,4.30
2019-01-28T16:29:29.127Z,2.87
2019-01-28T16:31:56.416Z,3.37
2019-01-28T16:34:23.694Z,4.35
2019-01-28T16:36:51.087Z,3.15
2019-01-28T16:39:19.654Z,4.80
2019-01-28T16:41:46.871Z,3.75
2019-01-28T16:44:14.317Z,10.15
2019-01-28T16:46:42.097Z,2.52
2019-01-28T16:49:09.601Z,6.40
2019-01-28T16:51:37.207Z,10.20
2019-01-28T16:54:04.523Z,3.35
2019-01-28T16:56:31.848Z,4.75
2019-01-28T16:58:59.764Z,2.92
2019-01-28T17:01:27.170Z,14.45
2019-01-28T17:03:54.515Z,11.05
2019-01-28T17:06:21.956Z,4.55
2019-01-28T17:08:49.352Z,3.52
2019-01-28T17:11:17.629Z,3.37
2019-01-28T17:13:45.023Z,11.45
2019-01-28T17:16:12.275Z,4.60
2019-01-28T17:18:39.825Z,5.83
2019-01-28T17:21:07.119Z,3.67
2019-01-28T17:23:34.340Z,4.22
2019-01-28T17:26:01.754Z,3.15
2019-01-28T17:28:29.109Z,5.58
2019-01-28T17:30:57.548Z,4.72
2019-01-28T17:33:24.887Z,3.30
2019-01-28T17:35:52.186Z,4.30
2019-01-28T17:38:19.679Z,4.05
2019-01-28T17:40:46.991Z,3.02
2019-01-28T17:43:16.382Z,4.42
2019-01-28T17:45:43.780Z,4.42
2019-01-28T17:48:11.422Z,1.95
2019-01-28T17:50:43.850Z,3.60
2019-01-28T17:53:08.203Z,2.72
2019-01-28T17:55:35.521Z,3.70
2019-01-28T17:58:03.703Z,6.15
2019-01-28T18:00:50.444Z,4.12
2019-01-28T18:03:17.872Z,3.62
2019-01-28T18:05:45.232Z,2.55
2019-01-28T18:08:13.611Z,3.95
2019-01-28T18:10:41.067Z,2.35
2019-01-28T18:13:08.379Z,2.98
2019-01-28T18:15:35.921Z,2.33
2019-01-28T18:18:03.368Z,3.80
2019-01-28T18:20:31.142Z,3.72
2019-01-28T18:22:58.708Z,3.45
2019-01-28T18:25:27.810Z,2.72
2019-01-28T18:27:55.615Z,3.35
2019-01-28T18:30:36.372Z,3.65
2019-01-28T18:33:03.968Z,2.42
2019-01-28T18:35:31.266Z,3.67
2019-01-28T18:37:58.663Z,3.50
2019-01-28T18:40:25.971Z,2.50
2019-01-28T18:42:53.490Z,2.17
2019-01-28T18:45:20.731Z,2.83
2019-01-28T18:47:48.175Z,4.40
2019-01-28T18:50:16.104Z,2.87
2019-01-28T18:52:43.620Z,3.85
2019-01-28T18:55:10.988Z,2.67
2019-01-28T18:57:38.622Z,1.92
2019-01-28T19:00:11.535Z,3.00
2019-01-28T19:02:39.246Z,2.15
2019-01-28T19:05:07.871Z,3.90
2019-01-28T19:07:40.227Z,2.30
2019-01-28T19:10:38.486Z,3.02
2019-01-28T19:13:22.661Z,3.80
2019-01-28T19:16:07.132Z,2.85
2019-01-28T19:18:46.762Z,2.00
2019-01-28T19:21:36.456Z,3.55
2019-01-28T19:24:04.420Z,1.80
2019-01-28T19:26:31.693Z,1.85
2019-01-28T19:28:58.919Z,2.20
2019-01-28T19:31:26.251Z,1.87
2019-01-28T19:33:53.759Z,2.10
2019-01-28T19:36:22.634Z,1.82
2019-01-28T19:38:50.018Z,1.77
2019-01-28T19:41:17.391Z,2.12
2019-01-28T19:43:44.810Z,1.72
2019-01-28T19:46:12.204Z,2.35
2019-01-28T19:48:39.811Z,1.98
2019-01-28T19:51:07.200Z,1.82
2019-01-28T19:53:34.537Z,1.00
2019-01-28T19:56:02.099Z,2.17
2019-01-28T19:58:29.571Z,1.00
2019-01-28T20:00:57.211Z,1.15
2019-01-28T20:03:25.695Z,1.77
2019-01-28T20:05:53.177Z,1.55
2019-01-28T20:08:40.075Z,2.02
2019-01-28T20:11:07.687Z,1.65
2019-01-28T20:13:36.625Z,1.80
2019-01-28T20:16:04.015Z,2.40
2019-01-28T20:18:31.201Z,1.12
2019-01-28T20:20:58.595Z,1.42
2019-01-28T20:23:26.979Z,1.27
2019-01-28T20:25:55.276Z,2.20
2019-01-28T20:28:22.663Z,2.37
2019-01-28T20:30:49.847Z,2.12
2019-01-28T20:33:17.399Z,1.15
2019-01-28T20:35:44.703Z,1.52
2019-01-28T20:38:30.779Z,1.17
2019-01-28T20:41:16.783Z,3.25
2019-01-28T20:44:02.663Z,2.45
2019-01-28T20:46:48.745Z,1.20
2019-01-28T20:49:35.067Z,1.25
2019-01-28T20:52:20.886Z,1.22
2019-01-28T20:55:07.441Z,1.67
2019-01-28T20:57:53.572Z,1.45
2019-01-28T21:00:39.440Z,2.08
2019-01-28T21:03:26.744Z,1.80
2019-01-28T21:06:12.945Z,3.20
2019-01-28T21:08:59.151Z,1.07
2019-01-28T21:11:45.269Z,2.17
2019-01-28T21:14:31.065Z,1.95
2019-01-28T21:17:17.067Z,1.57
2019-01-28T21:20:02.840Z,1.35
2019-01-28T21:22:48.883Z,2.00
2019-01-28T21:25:34.545Z,2.08
2019-01-28T21:28:20.506Z,1.10
2019-01-28T21:31:06.295Z,1.35
2019-01-28T21:33:52.191Z,1.70
2019-01-28T21:37:12.703Z,1.22
2019-01-28T21:39:58.769Z,1.60
2019-01-28T21:42:44.957Z,1.77
2019-01-28T21:45:32.396Z,1.40
2019-01-28T21:48:18.559Z,1.62
2019-01-28T21:51:05.138Z,2.52
2019-01-28T21:53:51.234Z,2.70
2019-01-28T21:56:37.491Z,3.62
2019-01-28T21:59:24.615Z,2.00
2019-01-28T22:02:10.899Z,1.70
2019-01-28T22:04:56.730Z,2.92
2019-01-28T22:07:42.991Z,1.77
2019-01-28T22:10:28.911Z,2.98
2019-01-28T22:13:14.875Z,3.95
2019-01-28T22:16:00.959Z,2.45
2019-01-28T22:18:46.865Z,2.80
2019-01-28T22:21:33.022Z,1.72
2019-01-28T22:24:19.612Z,1.45
2019-01-28T22:27:05.813Z,2.62
2019-01-28T22:29:51.959Z,2.92
2019-01-28T22:32:37.915Z,1.87
2019-01-28T22:35:23.590Z,3.37
2019-01-28T22:38:09.359Z,3.80
2019-01-28T22:40:55.479Z,2.22
2019-01-28T22:43:41.464Z,1.65
2019-01-28T22:46:27.922Z,1.70
2019-01-28T22:49:13.799Z,2.05
2019-01-28T22:52:07.480Z,1.60
2019-01-28T22:54:47.715Z,1.80
2019-01-28T22:57:34.558Z,1.50
2019-01-28T23:00:46.651Z,2.08
2019-01-28T23:03:32.970Z,1.70
2019-01-28T23:06:19.051Z,1.47
2019-01-28T23:09:08.975Z,2.77
2019-01-28T23:11:55.701Z,1.92
2019-01-28T23:14:41.855Z,1.98
2019-01-28T23:17:27.610Z,1.82
2019-01-28T23:20:13.587Z,2.35
2019-01-28T23:22:59.939Z,1.90
2019-01-28T23:25:47.058Z,1.40
2019-01-28T23:28:33.051Z,2.98
2019-01-28T23:31:18.989Z,1.60
2019-01-28T23:34:06.120Z,4.75
2019-01-28T23:36:51.963Z,1.90
2019-01-28T23:39:37.924Z,2.17
2019-01-28T23:42:23.955Z,1.75
2019-01-28T23:45:10.271Z,2.15
2019-01-28T23:47:56.060Z,1.70
2019-01-28T23:50:42.167Z,2.65
2019-01-28T23:53:28.307Z,1.72
2019-01-28T23:56:14.466Z,1.70
2019-01-28T23:59:00.635Z,2.70
